sensor_id;sensor_type;location;lat;lon;timestamp;P1;durP1;ratioP1;P2;durP2;ratioP2
11935;SDS011;6027;48.576;9.180;2024-01-27T00:00:43;10.13;;;5.00;;
11935;SDS011;6027;48.576;9.180;2024-01-27T00:03:08;8.80;;;6.60;;
11935;SDS011;6027;48.576;9.180;2024-01-27T00:05:34;7.23;;;6.13;;
11935;SDS011;6027;48.576;9.180;2024-01-27T00:07:59;8.60;;;5.70;;
11935;SDS011;6027;48.576;9.180;2024-01-27T00:10:24;7.67;;;5.90;;
11935;SDS011;6027;48.576;9.180;2024-01-27T00:12:50;9.03;;;6.80;;
11935;SDS011;6027;48.576;9.180;2024-01-27T00:15:15;9.07;;;6.90;;
11935;SDS011;6027;48.576;9.180;2024-01-27T00:17:41;8.50;;;5.93;;
11935;SDS011;6027;48.576;9.180;2024-01-27T00:20:06;9.47;;;6.10;;
11935;SDS011;6027;48.576;9.180;2024-01-27T00:22:32;8.17;;;5.57;;
11935;SDS011;6027;48.576;9.180;2024-01-27T00:24:58;6.73;;;4.63;;
11935;SDS011;6027;48.576;9.180;2024-01-27T00:27:23;6.13;;;4.50;;
11935;SDS011;6027;48.576;9.180;2024-01-27T00:29:49;5.93;;;4.77;;
11935;SDS011;6027;48.576;9.180;2024-01-27T00:32:14;7.13;;;4.67;;
11935;SDS011;6027;48.576;9.180;2024-01-27T00:34:40;6.83;;;4.97;;
11935;SDS011;6027;48.576;9.180;2024-01-27T00:37:05;6.03;;;4.47;;
11935;SDS011;6027;48.576;9.180;2024-01-27T00:39:31;6.90;;;5.43;;
11935;SDS011;6027;48.576;9.180;2024-01-27T00:41:56;7.13;;;5.10;;
11935;SDS011;6027;48.576;9.180;2024-01-27T00:44:23;7.30;;;4.90;;
11935;SDS011;6027;48.576;9.180;2024-01-27T00:46:49;9.23;;;5.10;;
11935;SDS011;6027;48.576;9.180;2024-01-27T00:49:14;5.50;;;4.53;;
11935;SDS011;6027;48.576;9.180;2024-01-27T00:51:39;6.80;;;5.00;;
11935;SDS011;6027;48.576;9.180;2024-01-27T00:54:05;6.70;;;4.60;;
11935;SDS011;6027;48.576;9.180;2024-01-27T00:56:31;6.50;;;4.63;;
11935;SDS011;6027;48.576;9.180;2024-01-27T00:58:57;4.60;;;4.00;;
11935;SDS011;6027;48.576;9.180;2024-01-27T01:01:22;6.40;;;4.10;;
11935;SDS011;6027;48.576;9.180;2024-01-27T01:03:48;7.80;;;4.50;;
11935;SDS011;6027;48.576;9.180;2024-01-27T01:06:13;4.93;;;3.60;;
11935;SDS011;6027;48.576;9.180;2024-01-27T01:08:38;4.97;;;3.47;;
11935;SDS011;6027;48.576;9.180;2024-01-27T01:11:04;5.13;;;3.60;;
11935;SDS011;6027;48.576;9.180;2024-01-27T01:13:29;5.70;;;3.00;;
11935;SDS011;6027;48.576;9.180;2024-01-27T01:15:54;8.00;;;3.60;;
11935;SDS011;6027;48.576;9.180;2024-01-27T01:18:20;4.87;;;3.40;;
11935;SDS011;6027;48.576;9.180;2024-01-27T01:20:45;4.20;;;3.30;;
11935;SDS011;6027;48.576;9.180;2024-01-27T01:23:11;4.73;;;3.17;;
11935;SDS011;6027;48.576;9.180;2024-01-27T01:25:36;6.30;;;2.80;;
11935;SDS011;6027;48.576;9.180;2024-01-27T01:28:01;5.47;;;2.97;;
11935;SDS011;6027;48.576;9.180;2024-01-27T01:30:28;3.70;;;2.70;;
11935;SDS011;6027;48.576;9.180;2024-01-27T01:32:54;5.47;;;2.70;;
11935;SDS011;6027;48.576;9.180;2024-01-27T01:35:19;3.63;;;2.97;;
11935;SDS011;6027;48.576;9.180;2024-01-27T01:37:44;4.17;;;2.70;;
11935;SDS011;6027;48.576;9.180;2024-01-27T01:40:10;4.67;;;2.83;;
11935;SDS011;6027;48.576;9.180;2024-01-27T01:42:36;5.87;;;2.60;;
11935;SDS011;6027;48.576;9.180;2024-01-27T01:45:01;3.40;;;2.13;;
11935;SDS011;6027;48.576;9.180;2024-01-27T01:47:27;3.80;;;2.50;;
11935;SDS011;6027;48.576;9.180;2024-01-27T01:49:52;3.93;;;2.60;;
11935;SDS011;6027;48.576;9.180;2024-01-27T01:52:18;3.37;;;2.30;;
11935;SDS011;6027;48.576;9.180;2024-01-27T01:54:49;5.13;;;2.27;;
11935;SDS011;6027;48.576;9.180;2024-01-27T01:57:15;5.60;;;2.67;;
11935;SDS011;6027;48.576;9.180;2024-01-27T01:59:41;5.70;;;2.40;;
11935;SDS011;6027;48.576;9.180;2024-01-27T02:02:10;3.87;;;2.40;;
11935;SDS011;6027;48.576;9.180;2024-01-27T02:04:44;4.47;;;2.50;;
11935;SDS011;6027;48.576;9.180;2024-01-27T02:07:13;3.97;;;2.37;;
11935;SDS011;6027;48.576;9.180;2024-01-27T02:09:39;3.47;;;2.00;;
11935;SDS011;6027;48.576;9.180;2024-01-27T02:12:04;2.93;;;2.10;;
11935;SDS011;6027;48.576;9.180;2024-01-27T02:14:30;4.47;;;2.10;;
11935;SDS011;6027;48.576;9.180;2024-01-27T02:16:56;5.03;;;2.30;;
11935;SDS011;6027;48.576;9.180;2024-01-27T02:19:22;7.30;;;2.33;;
11935;SDS011;6027;48.576;9.180;2024-01-27T02:21:48;4.63;;;2.33;;
11935;SDS011;6027;48.576;9.180;2024-01-27T02:24:14;4.10;;;2.20;;
11935;SDS011;6027;48.576;9.180;2024-01-27T02:26:39;5.47;;;2.10;;
11935;SDS011;6027;48.576;9.180;2024-01-27T02:29:05;2.93;;;1.67;;
11935;SDS011;6027;48.576;9.180;2024-01-27T02:31:30;7.57;;;2.30;;
11935;SDS011;6027;48.576;9.180;2024-01-27T02:33:56;4.40;;;2.20;;
11935;SDS011;6027;48.576;9.180;2024-01-27T02:36:21;5.97;;;2.00;;
11935;SDS011;6027;48.576;9.180;2024-01-27T02:38:47;3.23;;;1.87;;
11935;SDS011;6027;48.576;9.180;2024-01-27T02:41:12;4.30;;;2.00;;
11935;SDS011;6027;48.576;9.180;2024-01-27T02:43:41;4.57;;;2.20;;
11935;SDS011;6027;48.576;9.180;2024-01-27T02:46:07;4.03;;;2.37;;
11935;SDS011;6027;48.576;9.180;2024-01-27T02:48:34;3.57;;;2.03;;
11935;SDS011;6027;48.576;9.180;2024-01-27T02:51:01;5.60;;;1.97;;
11935;SDS011;6027;48.576;9.180;2024-01-27T02:53:27;3.53;;;1.93;;
11935;SDS011;6027;48.576;9.180;2024-01-27T02:55:53;4.73;;;2.20;;
11935;SDS011;6027;48.576;9.180;2024-01-27T02:58:18;2.57;;;1.70;;
11935;SDS011;6027;48.576;9.180;2024-01-27T03:00:43;5.13;;;2.43;;
11935;SDS011;6027;48.576;9.180;2024-01-27T03:03:09;3.57;;;1.97;;
11935;SDS011;6027;48.576;9.180;2024-01-27T03:05:34;4.97;;;2.30;;
11935;SDS011;6027;48.576;9.180;2024-01-27T03:08:00;4.67;;;2.77;;
11935;SDS011;6027;48.576;9.180;2024-01-27T03:10:25;4.53;;;2.40;;
11935;SDS011;6027;48.576;9.180;2024-01-27T03:12:51;4.77;;;1.87;;
11935;SDS011;6027;48.576;9.180;2024-01-27T03:15:16;3.43;;;1.90;;
11935;SDS011;6027;48.576;9.180;2024-01-27T03:17:41;3.70;;;2.07;;
11935;SDS011;6027;48.576;9.180;2024-01-27T03:20:07;5.10;;;2.03;;
11935;SDS011;6027;48.576;9.180;2024-01-27T03:22:33;5.83;;;2.13;;
11935;SDS011;6027;48.576;9.180;2024-01-27T03:24:59;4.23;;;2.20;;
11935;SDS011;6027;48.576;9.180;2024-01-27T03:27:24;7.37;;;2.53;;
11935;SDS011;6027;48.576;9.180;2024-01-27T03:29:49;5.10;;;2.40;;
11935;SDS011;6027;48.576;9.180;2024-01-27T03:32:15;5.63;;;2.50;;
11935;SDS011;6027;48.576;9.180;2024-01-27T03:34:44;5.53;;;2.40;;
11935;SDS011;6027;48.576;9.180;2024-01-27T03:37:12;6.63;;;2.60;;
11935;SDS011;6027;48.576;9.180;2024-01-27T03:39:40;7.20;;;2.03;;
11935;SDS011;6027;48.576;9.180;2024-01-27T03:42:06;6.47;;;1.70;;
11935;SDS011;6027;48.576;9.180;2024-01-27T03:44:32;5.30;;;2.30;;
11935;SDS011;6027;48.576;9.180;2024-01-27T03:46:57;4.93;;;2.40;;
11935;SDS011;6027;48.576;9.180;2024-01-27T03:49:22;5.20;;;1.90;;
11935;SDS011;6027;48.576;9.180;2024-01-27T03:51:48;7.63;;;2.53;;
11935;SDS011;6027;48.576;9.180;2024-01-27T03:54:13;5.73;;;2.73;;
11935;SDS011;6027;48.576;9.180;2024-01-27T03:56:39;5.50;;;2.47;;
11935;SDS011;6027;48.576;9.180;2024-01-27T03:59:06;3.97;;;2.40;;
11935;SDS011;6027;48.576;9.180;2024-01-27T04:01:34;4.27;;;2.17;;
11935;SDS011;6027;48.576;9.180;2024-01-27T04:03:59;8.13;;;3.00;;
11935;SDS011;6027;48.576;9.180;2024-01-27T04:06:25;5.20;;;3.60;;
11935;SDS011;6027;48.576;9.180;2024-01-27T04:08:50;42.20;;;28.10;;
11935;SDS011;6027;48.576;9.180;2024-01-27T04:11:22;16.10;;;12.47;;
11935;SDS011;6027;48.576;9.180;2024-01-27T04:13:48;17.63;;;10.73;;
11935;SDS011;6027;48.576;9.180;2024-01-27T04:16:15;9.23;;;6.80;;
11935;SDS011;6027;48.576;9.180;2024-01-27T04:18:41;10.50;;;6.43;;
11935;SDS011;6027;48.576;9.180;2024-01-27T04:21:07;9.17;;;6.00;;
11935;SDS011;6027;48.576;9.180;2024-01-27T04:23:32;10.77;;;6.13;;
11935;SDS011;6027;48.576;9.180;2024-01-27T04:25:58;9.27;;;6.27;;
11935;SDS011;6027;48.576;9.180;2024-01-27T04:28:25;10.57;;;4.93;;
11935;SDS011;6027;48.576;9.180;2024-01-27T04:30:51;7.50;;;4.83;;
11935;SDS011;6027;48.576;9.180;2024-01-27T04:33:17;8.93;;;3.70;;
11935;SDS011;6027;48.576;9.180;2024-01-27T04:35:42;5.87;;;3.57;;
11935;SDS011;6027;48.576;9.180;2024-01-27T04:38:11;5.87;;;3.27;;
11935;SDS011;6027;48.576;9.180;2024-01-27T04:40:36;6.93;;;3.57;;
11935;SDS011;6027;48.576;9.180;2024-01-27T04:43:01;7.83;;;3.17;;
11935;SDS011;6027;48.576;9.180;2024-01-27T04:45:28;7.10;;;2.50;;
11935;SDS011;6027;48.576;9.180;2024-01-27T04:47:53;6.20;;;2.37;;
11935;SDS011;6027;48.576;9.180;2024-01-27T04:50:21;7.13;;;3.13;;
11935;SDS011;6027;48.576;9.180;2024-01-27T04:52:47;4.80;;;2.40;;
11935;SDS011;6027;48.576;9.180;2024-01-27T04:55:12;5.53;;;2.20;;
11935;SDS011;6027;48.576;9.180;2024-01-27T04:57:38;5.27;;;2.20;;
11935;SDS011;6027;48.576;9.180;2024-01-27T05:00:03;3.13;;;2.10;;
11935;SDS011;6027;48.576;9.180;2024-01-27T05:02:32;5.47;;;3.07;;
11935;SDS011;6027;48.576;9.180;2024-01-27T05:04:57;3.67;;;2.40;;
11935;SDS011;6027;48.576;9.180;2024-01-27T05:07:23;6.80;;;2.90;;
11935;SDS011;6027;48.576;9.180;2024-01-27T05:09:48;3.37;;;2.20;;
11935;SDS011;6027;48.576;9.180;2024-01-27T05:12:13;5.63;;;2.80;;
11935;SDS011;6027;48.576;9.180;2024-01-27T05:14:42;5.83;;;2.63;;
11935;SDS011;6027;48.576;9.180;2024-01-27T05:17:09;5.23;;;2.70;;
11935;SDS011;6027;48.576;9.180;2024-01-27T05:19:34;5.23;;;3.03;;
11935;SDS011;6027;48.576;9.180;2024-01-27T05:21:59;5.03;;;2.80;;
11935;SDS011;6027;48.576;9.180;2024-01-27T05:24:25;4.47;;;2.80;;
11935;SDS011;6027;48.576;9.180;2024-01-27T05:26:50;4.67;;;2.70;;
11935;SDS011;6027;48.576;9.180;2024-01-27T05:29:16;7.70;;;3.27;;
11935;SDS011;6027;48.576;9.180;2024-01-27T05:31:41;4.83;;;2.90;;
11935;SDS011;6027;48.576;9.180;2024-01-27T05:34:09;3.33;;;2.50;;
11935;SDS011;6027;48.576;9.180;2024-01-27T05:36:35;5.03;;;3.13;;
11935;SDS011;6027;48.576;9.180;2024-01-27T05:39:01;7.43;;;2.97;;
11935;SDS011;6027;48.576;9.180;2024-01-27T05:41:28;4.60;;;2.97;;
11935;SDS011;6027;48.576;9.180;2024-01-27T05:43:54;7.37;;;2.87;;
11935;SDS011;6027;48.576;9.180;2024-01-27T05:46:19;4.70;;;2.50;;
11935;SDS011;6027;48.576;9.180;2024-01-27T05:48:44;5.93;;;2.77;;
11935;SDS011;6027;48.576;9.180;2024-01-27T05:51:10;4.33;;;2.87;;
11935;SDS011;6027;48.576;9.180;2024-01-27T05:53:37;5.77;;;2.50;;
11935;SDS011;6027;48.576;9.180;2024-01-27T05:56:02;3.97;;;2.73;;
11935;SDS011;6027;48.576;9.180;2024-01-27T05:58:28;5.83;;;3.20;;
11935;SDS011;6027;48.576;9.180;2024-01-27T06:00:54;7.80;;;3.13;;
11935;SDS011;6027;48.576;9.180;2024-01-27T06:03:19;6.20;;;3.00;;
11935;SDS011;6027;48.576;9.180;2024-01-27T06:05:44;6.17;;;3.13;;
11935;SDS011;6027;48.576;9.180;2024-01-27T06:08:10;7.10;;;3.80;;
11935;SDS011;6027;48.576;9.180;2024-01-27T06:10:36;6.17;;;3.13;;
11935;SDS011;6027;48.576;9.180;2024-01-27T06:13:02;5.97;;;3.50;;
11935;SDS011;6027;48.576;9.180;2024-01-27T06:15:28;5.97;;;3.70;;
11935;SDS011;6027;48.576;9.180;2024-01-27T06:17:53;6.10;;;3.97;;
11935;SDS011;6027;48.576;9.180;2024-01-27T06:20:18;10.77;;;5.13;;
11935;SDS011;6027;48.576;9.180;2024-01-27T06:22:44;10.37;;;6.87;;
11935;SDS011;6027;48.576;9.180;2024-01-27T06:25:09;9.37;;;5.50;;
11935;SDS011;6027;48.576;9.180;2024-01-27T06:27:35;5.20;;;4.00;;
11935;SDS011;6027;48.576;9.180;2024-01-27T06:30:02;7.73;;;5.30;;
11935;SDS011;6027;48.576;9.180;2024-01-27T06:32:29;9.60;;;5.30;;
11935;SDS011;6027;48.576;9.180;2024-01-27T06:34:54;8.50;;;5.63;;
11935;SDS011;6027;48.576;9.180;2024-01-27T06:37:20;8.87;;;6.33;;
11935;SDS011;6027;48.576;9.180;2024-01-27T06:39:45;12.03;;;8.27;;
11935;SDS011;6027;48.576;9.180;2024-01-27T06:42:10;15.27;;;11.10;;
11935;SDS011;6027;48.576;9.180;2024-01-27T06:44:36;19.37;;;13.37;;
11935;SDS011;6027;48.576;9.180;2024-01-27T06:47:01;21.33;;;14.80;;
11935;SDS011;6027;48.576;9.180;2024-01-27T06:49:26;18.17;;;13.93;;
11935;SDS011;6027;48.576;9.180;2024-01-27T06:51:52;16.17;;;11.67;;
11935;SDS011;6027;48.576;9.180;2024-01-27T06:54:17;14.87;;;9.87;;
11935;SDS011;6027;48.576;9.180;2024-01-27T06:56:42;13.90;;;8.47;;
11935;SDS011;6027;48.576;9.180;2024-01-27T06:59:08;11.30;;;8.53;;
11935;SDS011;6027;48.576;9.180;2024-01-27T07:01:33;14.07;;;8.63;;
11935;SDS011;6027;48.576;9.180;2024-01-27T07:03:59;12.80;;;8.60;;
11935;SDS011;6027;48.576;9.180;2024-01-27T07:06:26;12.53;;;6.70;;
11935;SDS011;6027;48.576;9.180;2024-01-27T07:08:51;9.93;;;6.33;;
11935;SDS011;6027;48.576;9.180;2024-01-27T07:11:17;9.70;;;5.40;;
11935;SDS011;6027;48.576;9.180;2024-01-27T07:13:42;13.63;;;5.77;;
11935;SDS011;6027;48.576;9.180;2024-01-27T07:16:07;44.90;;;6.90;;
11935;SDS011;6027;48.576;9.180;2024-01-27T07:18:33;105.67;;;7.67;;
11935;SDS011;6027;48.576;9.180;2024-01-27T07:21:00;113.77;;;7.63;;
11935;SDS011;6027;48.576;9.180;2024-01-27T07:23:27;104.37;;;7.13;;
11935;SDS011;6027;48.576;9.180;2024-01-27T07:25:53;234.60;;;11.67;;
11935;SDS011;6027;48.576;9.180;2024-01-27T07:28:18;201.30;;;12.10;;
11935;SDS011;6027;48.576;9.180;2024-01-27T07:30:44;107.30;;;6.43;;
11935;SDS011;6027;48.576;9.180;2024-01-27T07:33:10;104.63;;;6.53;;
11935;SDS011;6027;48.576;9.180;2024-01-27T07:35:35;51.53;;;7.17;;
11935;SDS011;6027;48.576;9.180;2024-01-27T07:38:00;39.40;;;8.10;;
11935;SDS011;6027;48.576;9.180;2024-01-27T07:40:26;9.03;;;5.87;;
11935;SDS011;6027;48.576;9.180;2024-01-27T07:42:51;25.70;;;10.17;;
11935;SDS011;6027;48.576;9.180;2024-01-27T07:45:17;19.20;;;8.10;;
11935;SDS011;6027;48.576;9.180;2024-01-27T07:47:42;13.53;;;8.33;;
11935;SDS011;6027;48.576;9.180;2024-01-27T07:50:07;9.67;;;6.20;;
11935;SDS011;6027;48.576;9.180;2024-01-27T07:52:34;9.13;;;5.27;;
11935;SDS011;6027;48.576;9.180;2024-01-27T07:55:00;16.60;;;8.30;;
11935;SDS011;6027;48.576;9.180;2024-01-27T07:57:27;21.07;;;11.57;;
11935;SDS011;6027;48.576;9.180;2024-01-27T07:59:53;14.73;;;8.17;;
11935;SDS011;6027;48.576;9.180;2024-01-27T08:02:18;19.90;;;8.83;;
11935;SDS011;6027;48.576;9.180;2024-01-27T08:04:44;17.80;;;9.73;;
11935;SDS011;6027;48.576;9.180;2024-01-27T08:07:10;16.63;;;8.73;;
11935;SDS011;6027;48.576;9.180;2024-01-27T08:09:36;15.53;;;8.53;;
11935;SDS011;6027;48.576;9.180;2024-01-27T08:12:03;14.37;;;9.53;;
11935;SDS011;6027;48.576;9.180;2024-01-27T08:14:28;13.50;;;11.40;;
11935;SDS011;6027;48.576;9.180;2024-01-27T08:16:58;14.83;;;11.03;;
11935;SDS011;6027;48.576;9.180;2024-01-27T08:19:24;14.37;;;8.70;;
11935;SDS011;6027;48.576;9.180;2024-01-27T08:21:49;9.37;;;6.63;;
11935;SDS011;6027;48.576;9.180;2024-01-27T08:24:15;8.10;;;6.50;;
11935;SDS011;6027;48.576;9.180;2024-01-27T08:26:41;11.13;;;8.17;;
11935;SDS011;6027;48.576;9.180;2024-01-27T08:29:08;14.77;;;8.13;;
11935;SDS011;6027;48.576;9.180;2024-01-27T08:31:33;7.13;;;5.40;;
11935;SDS011;6027;48.576;9.180;2024-01-27T08:33:59;9.63;;;6.37;;
11935;SDS011;6027;48.576;9.180;2024-01-27T08:36:24;10.70;;;6.33;;
11935;SDS011;6027;48.576;9.180;2024-01-27T08:38:50;11.00;;;6.07;;
11935;SDS011;6027;48.576;9.180;2024-01-27T08:41:15;15.83;;;9.77;;
11935;SDS011;6027;48.576;9.180;2024-01-27T08:43:41;23.20;;;14.50;;
11935;SDS011;6027;48.576;9.180;2024-01-27T08:46:06;13.13;;;8.80;;
11935;SDS011;6027;48.576;9.180;2024-01-27T08:48:36;12.17;;;8.27;;
11935;SDS011;6027;48.576;9.180;2024-01-27T08:51:01;7.60;;;6.17;;
11935;SDS011;6027;48.576;9.180;2024-01-27T08:53:27;8.07;;;5.70;;
11935;SDS011;6027;48.576;9.180;2024-01-27T08:55:52;5.90;;;4.93;;
11935;SDS011;6027;48.576;9.180;2024-01-27T08:58:18;7.87;;;5.63;;
11935;SDS011;6027;48.576;9.180;2024-01-27T09:00:43;9.80;;;6.90;;
11935;SDS011;6027;48.576;9.180;2024-01-27T09:03:08;6.40;;;5.80;;
11935;SDS011;6027;48.576;9.180;2024-01-27T09:05:34;6.50;;;5.20;;
11935;SDS011;6027;48.576;9.180;2024-01-27T09:07:59;6.00;;;4.90;;
11935;SDS011;6027;48.576;9.180;2024-01-27T09:10:25;7.30;;;5.57;;
11935;SDS011;6027;48.576;9.180;2024-01-27T09:12:50;5.00;;;4.50;;
11935;SDS011;6027;48.576;9.180;2024-01-27T09:15:17;4.70;;;4.03;;
11935;SDS011;6027;48.576;9.180;2024-01-27T09:17:42;5.20;;;4.70;;
11935;SDS011;6027;48.576;9.180;2024-01-27T09:20:08;5.07;;;4.17;;
11935;SDS011;6027;48.576;9.180;2024-01-27T09:22:33;5.47;;;4.67;;
11935;SDS011;6027;48.576;9.180;2024-01-27T09:24:59;6.80;;;5.90;;
11935;SDS011;6027;48.576;9.180;2024-01-27T09:27:24;6.93;;;5.97;;
11935;SDS011;6027;48.576;9.180;2024-01-27T09:29:50;7.43;;;5.63;;
11935;SDS011;6027;48.576;9.180;2024-01-27T09:32:15;8.73;;;5.77;;
11935;SDS011;6027;48.576;9.180;2024-01-27T09:34:40;10.97;;;6.03;;
11935;SDS011;6027;48.576;9.180;2024-01-27T09:37:06;6.03;;;5.50;;
11935;SDS011;6027;48.576;9.180;2024-01-27T09:39:31;5.70;;;5.17;;
11935;SDS011;6027;48.576;9.180;2024-01-27T09:41:57;8.97;;;5.70;;
11935;SDS011;6027;48.576;9.180;2024-01-27T09:44:27;6.17;;;5.57;;
11935;SDS011;6027;48.576;9.180;2024-01-27T09:46:53;8.10;;;5.67;;
11935;SDS011;6027;48.576;9.180;2024-01-27T09:49:19;7.37;;;6.43;;
11935;SDS011;6027;48.576;9.180;2024-01-27T09:51:45;7.67;;;6.97;;
11935;SDS011;6027;48.576;9.180;2024-01-27T09:54:11;7.27;;;6.57;;
11935;SDS011;6027;48.576;9.180;2024-01-27T09:56:36;7.07;;;6.47;;
11935;SDS011;6027;48.576;9.180;2024-01-27T09:59:03;7.03;;;6.40;;
11935;SDS011;6027;48.576;9.180;2024-01-27T10:01:30;8.03;;;5.90;;
11935;SDS011;6027;48.576;9.180;2024-01-27T10:03:58;8.00;;;5.27;;
11935;SDS011;6027;48.576;9.180;2024-01-27T10:06:24;8.47;;;5.77;;
11935;SDS011;6027;48.576;9.180;2024-01-27T10:08:54;7.77;;;5.47;;
11935;SDS011;6027;48.576;9.180;2024-01-27T10:11:20;6.83;;;6.20;;
11935;SDS011;6027;48.576;9.180;2024-01-27T10:13:56;7.47;;;5.80;;
11935;SDS011;6027;48.576;9.180;2024-01-27T10:16:24;7.60;;;5.47;;
11935;SDS011;6027;48.576;9.180;2024-01-27T10:19:00;7.03;;;6.07;;
11935;SDS011;6027;48.576;9.180;2024-01-27T10:21:26;7.80;;;6.37;;
11935;SDS011;6027;48.576;9.180;2024-01-27T10:23:52;9.93;;;6.13;;
11935;SDS011;6027;48.576;9.180;2024-01-27T10:26:17;9.10;;;5.87;;
11935;SDS011;6027;48.576;9.180;2024-01-27T10:28:51;7.83;;;5.77;;
11935;SDS011;6027;48.576;9.180;2024-01-27T10:31:25;6.47;;;5.70;;
11935;SDS011;6027;48.576;9.180;2024-01-27T10:33:55;8.80;;;5.30;;
11935;SDS011;6027;48.576;9.180;2024-01-27T10:36:24;5.70;;;5.10;;
11935;SDS011;6027;48.576;9.180;2024-01-27T10:38:53;8.57;;;5.30;;
11935;SDS011;6027;48.576;9.180;2024-01-27T10:41:22;7.27;;;5.40;;
11935;SDS011;6027;48.576;9.180;2024-01-27T10:43:52;8.40;;;6.37;;
11935;SDS011;6027;48.576;9.180;2024-01-27T10:46:21;7.13;;;5.33;;
11935;SDS011;6027;48.576;9.180;2024-01-27T10:48:51;7.07;;;4.83;;
11935;SDS011;6027;48.576;9.180;2024-01-27T10:51:23;6.60;;;4.70;;
11935;SDS011;6027;48.576;9.180;2024-01-27T10:54:03;6.67;;;4.57;;
11935;SDS011;6027;48.576;9.180;2024-01-27T10:56:31;7.07;;;5.10;;
11935;SDS011;6027;48.576;9.180;2024-01-27T10:58:58;8.73;;;5.43;;
11935;SDS011;6027;48.576;9.180;2024-01-27T11:01:24;7.30;;;5.27;;
11935;SDS011;6027;48.576;9.180;2024-01-27T11:03:52;5.70;;;5.10;;
11935;SDS011;6027;48.576;9.180;2024-01-27T11:06:19;6.37;;;4.23;;
11935;SDS011;6027;48.576;9.180;2024-01-27T11:08:50;10.13;;;5.20;;
11935;SDS011;6027;48.576;9.180;2024-01-27T11:11:17;7.33;;;4.50;;
11935;SDS011;6027;48.576;9.180;2024-01-27T11:13:43;8.73;;;5.00;;
11935;SDS011;6027;48.576;9.180;2024-01-27T11:16:17;7.03;;;3.97;;
11935;SDS011;6027;48.576;9.180;2024-01-27T11:18:45;7.30;;;3.77;;
11935;SDS011;6027;48.576;9.180;2024-01-27T11:21:16;9.00;;;3.77;;
11935;SDS011;6027;48.576;9.180;2024-01-27T11:23:43;7.93;;;4.10;;
11935;SDS011;6027;48.576;9.180;2024-01-27T11:26:10;6.07;;;4.10;;
11935;SDS011;6027;48.576;9.180;2024-01-27T11:28:39;9.53;;;4.07;;
11935;SDS011;6027;48.576;9.180;2024-01-27T11:31:06;7.97;;;3.40;;
11935;SDS011;6027;48.576;9.180;2024-01-27T11:33:32;7.47;;;3.60;;
11935;SDS011;6027;48.576;9.180;2024-01-27T11:36:04;6.43;;;3.63;;
11935;SDS011;6027;48.576;9.180;2024-01-27T11:38:30;9.13;;;4.20;;
11935;SDS011;6027;48.576;9.180;2024-01-27T11:40:57;6.87;;;4.70;;
11935;SDS011;6027;48.576;9.180;2024-01-27T11:43:23;6.57;;;4.63;;
11935;SDS011;6027;48.576;9.180;2024-01-27T11:45:58;10.03;;;4.77;;
11935;SDS011;6027;48.576;9.180;2024-01-27T11:48:24;7.00;;;4.90;;
11935;SDS011;6027;48.576;9.180;2024-01-27T11:51:11;6.83;;;3.90;;
11935;SDS011;6027;48.576;9.180;2024-01-27T11:53:36;7.93;;;4.60;;
11935;SDS011;6027;48.576;9.180;2024-01-27T11:56:05;7.53;;;3.50;;
11935;SDS011;6027;48.576;9.180;2024-01-27T11:58:31;9.43;;;3.63;;
11935;SDS011;6027;48.576;9.180;2024-01-27T12:00:56;9.10;;;3.83;;
11935;SDS011;6027;48.576;9.180;2024-01-27T12:03:23;8.15;;;4.38;;
11935;SDS011;6027;48.576;9.180;2024-01-27T12:05:49;7.15;;;4.03;;
11935;SDS011;6027;48.576;9.180;2024-01-27T12:08:16;6.95;;;3.85;;
11935;SDS011;6027;48.576;9.180;2024-01-27T12:10:44;7.50;;;3.30;;
11935;SDS011;6027;48.576;9.180;2024-01-27T12:13:10;6.18;;;2.90;;
11935;SDS011;6027;48.576;9.180;2024-01-27T12:15:35;7.38;;;4.00;;
11935;SDS011;6027;48.576;9.180;2024-01-27T12:18:01;6.05;;;3.85;;
11935;SDS011;6027;48.576;9.180;2024-01-27T12:20:27;7.88;;;4.50;;
11935;SDS011;6027;48.576;9.180;2024-01-27T12:23:04;7.57;;;4.60;;
11935;SDS011;6027;48.576;9.180;2024-01-27T12:25:31;8.65;;;4.35;;
11935;SDS011;6027;48.576;9.180;2024-01-27T12:27:57;5.82;;;3.83;;
11935;SDS011;6027;48.576;9.180;2024-01-27T12:30:26;6.57;;;3.53;;
11935;SDS011;6027;48.576;9.180;2024-01-27T12:32:51;5.70;;;3.20;;
11935;SDS011;6027;48.576;9.180;2024-01-27T12:35:17;6.75;;;2.58;;
11935;SDS011;6027;48.576;9.180;2024-01-27T12:37:47;5.93;;;2.50;;
11935;SDS011;6027;48.576;9.180;2024-01-27T12:40:18;7.55;;;2.88;;
11935;SDS011;6027;48.576;9.180;2024-01-27T12:42:47;7.20;;;3.15;;
11935;SDS011;6027;48.576;9.180;2024-01-27T12:45:13;7.38;;;3.05;;
11935;SDS011;6027;48.576;9.180;2024-01-27T12:47:39;6.68;;;2.83;;
11935;SDS011;6027;48.576;9.180;2024-01-27T12:50:05;6.13;;;2.88;;
11935;SDS011;6027;48.576;9.180;2024-01-27T12:52:31;8.15;;;2.80;;
11935;SDS011;6027;48.576;9.180;2024-01-27T12:54:57;6.07;;;3.25;;
11935;SDS011;6027;48.576;9.180;2024-01-27T12:57:22;7.53;;;3.25;;
11935;SDS011;6027;48.576;9.180;2024-01-27T12:59:48;6.20;;;2.90;;
11935;SDS011;6027;48.576;9.180;2024-01-27T13:02:13;6.30;;;2.85;;
11935;SDS011;6027;48.576;9.180;2024-01-27T13:04:43;6.93;;;3.05;;
11935;SDS011;6027;48.576;9.180;2024-01-27T13:07:08;6.68;;;3.10;;
11935;SDS011;6027;48.576;9.180;2024-01-27T13:09:35;5.47;;;2.80;;
11935;SDS011;6027;48.576;9.180;2024-01-27T13:12:02;6.95;;;3.13;;
11935;SDS011;6027;48.576;9.180;2024-01-27T13:14:27;7.20;;;3.30;;
11935;SDS011;6027;48.576;9.180;2024-01-27T13:16:53;8.77;;;3.67;;
11935;SDS011;6027;48.576;9.180;2024-01-27T13:19:19;8.07;;;3.38;;
11935;SDS011;6027;48.576;9.180;2024-01-27T13:21:45;9.50;;;4.07;;
11935;SDS011;6027;48.576;9.180;2024-01-27T13:24:10;9.82;;;3.55;;
11935;SDS011;6027;48.576;9.180;2024-01-27T13:26:36;7.38;;;3.08;;
11935;SDS011;6027;48.576;9.180;2024-01-27T13:29:07;7.80;;;3.38;;
11935;SDS011;6027;48.576;9.180;2024-01-27T13:31:33;5.50;;;3.40;;
11935;SDS011;6027;48.576;9.180;2024-01-27T13:33:59;7.97;;;2.95;;
11935;SDS011;6027;48.576;9.180;2024-01-27T13:36:25;6.32;;;2.80;;
11935;SDS011;6027;48.576;9.180;2024-01-27T13:38:51;5.85;;;3.28;;
11935;SDS011;6027;48.576;9.180;2024-01-27T13:41:17;6.07;;;2.90;;
11935;SDS011;6027;48.576;9.180;2024-01-27T13:43:43;6.60;;;2.80;;
11935;SDS011;6027;48.576;9.180;2024-01-27T13:46:08;4.75;;;2.65;;
11935;SDS011;6027;48.576;9.180;2024-01-27T13:48:34;3.75;;;2.33;;
11935;SDS011;6027;48.576;9.180;2024-01-27T13:50:59;8.02;;;2.53;;
11935;SDS011;6027;48.576;9.180;2024-01-27T13:53:25;6.43;;;2.90;;
11935;SDS011;6027;48.576;9.180;2024-01-27T13:55:50;9.27;;;2.88;;
11935;SDS011;6027;48.576;9.180;2024-01-27T13:58:19;7.15;;;2.80;;
11935;SDS011;6027;48.576;9.180;2024-01-27T14:00:44;6.63;;;2.58;;
11935;SDS011;6027;48.576;9.180;2024-01-27T14:03:10;7.95;;;2.97;;
11935;SDS011;6027;48.576;9.180;2024-01-27T14:05:36;5.95;;;2.72;;
11935;SDS011;6027;48.576;9.180;2024-01-27T14:08:03;5.57;;;2.92;;
11935;SDS011;6027;48.576;9.180;2024-01-27T14:10:30;7.70;;;2.92;;
11935;SDS011;6027;48.576;9.180;2024-01-27T14:12:55;6.25;;;2.90;;
11935;SDS011;6027;48.576;9.180;2024-01-27T14:15:21;6.55;;;2.45;;
11935;SDS011;6027;48.576;9.180;2024-01-27T14:17:46;8.40;;;3.50;;
11935;SDS011;6027;48.576;9.180;2024-01-27T14:20:12;4.88;;;3.15;;
11935;SDS011;6027;48.576;9.180;2024-01-27T14:22:37;7.82;;;3.40;;
11935;SDS011;6027;48.576;9.180;2024-01-27T14:25:03;10.82;;;3.45;;
11935;SDS011;6027;48.576;9.180;2024-01-27T14:27:29;8.90;;;3.03;;
11935;SDS011;6027;48.576;9.180;2024-01-27T14:29:55;6.20;;;2.97;;
11935;SDS011;6027;48.576;9.180;2024-01-27T14:32:21;5.90;;;3.08;;
11935;SDS011;6027;48.576;9.180;2024-01-27T14:34:47;12.57;;;3.33;;
11935;SDS011;6027;48.576;9.180;2024-01-27T14:37:14;7.75;;;3.25;;
11935;SDS011;6027;48.576;9.180;2024-01-27T14:39:41;5.93;;;3.25;;
11935;SDS011;6027;48.576;9.180;2024-01-27T14:42:12;6.75;;;3.50;;
11935;SDS011;6027;48.576;9.180;2024-01-27T14:44:38;8.88;;;4.00;;
11935;SDS011;6027;48.576;9.180;2024-01-27T14:47:04;9.45;;;4.45;;
11935;SDS011;6027;48.576;9.180;2024-01-27T14:49:30;8.30;;;4.18;;
11935;SDS011;6027;48.576;9.180;2024-01-27T14:51:55;7.13;;;4.18;;